createdAt,value
2023-02-27T00:00:46.931Z,45.64
2023-02-27T00:03:13.528Z,45.76
2023-02-27T00:05:41.717Z,45.07
2023-02-27T00:08:08.480Z,45.11
2023-02-27T00:10:35.080Z,45.06
2023-02-27T00:13:01.654Z,45.17
2023-02-27T00:15:30.851Z,45.24
2023-02-27T00:17:57.783Z,45.65
2023-02-27T00:20:26.175Z,45.53
2023-02-27T00:22:52.771Z,45.25
2023-02-27T00:25:19.464Z,45.03
2023-02-27T00:27:46.077Z,44.83
2023-02-27T00:30:15.490Z,45.06
2023-02-27T00:32:42.605Z,45.42
2023-02-27T00:35:11.028Z,45.14
2023-02-27T00:37:37.864Z,45.55
2023-02-27T00:40:07.733Z,45.26
2023-02-27T00:42:34.685Z,44.85
2023-02-27T00:45:01.320Z,45.38
2023-02-27T00:47:27.914Z,45.29
2023-02-27T00:49:54.582Z,45.32
2023-02-27T00:52:21.195Z,45.39
2023-02-27T00:54:47.773Z,45.61
2023-02-27T00:57:14.427Z,45.19
2023-02-27T00:59:41.214Z,45.58
2023-02-27T01:02:08.070Z,44.87
2023-02-27T01:04:34.714Z,44.90
2023-02-27T01:07:01.387Z,45.21
2023-02-27T01:09:28.087Z,45.23
2023-02-27T01:11:54.723Z,45.80
2023-02-27T01:14:21.359Z,45.49
2023-02-27T01:16:47.961Z,45.37
2023-02-27T01:19:14.552Z,45.26
2023-02-27T01:21:42.193Z,45.22
2023-02-27T01:24:09.819Z,45.48
2023-02-27T01:26:36.516Z,44.79
2023-02-27T01:29:06.493Z,45.70
2023-02-27T01:31:33.617Z,45.62
2023-02-27T01:34:00.307Z,45.54
2023-02-27T01:36:26.903Z,44.91
2023-02-27T01:38:53.600Z,45.54
2023-02-27T01:41:20.267Z,45.23
2023-02-27T01:44:01.678Z,44.83
2023-02-27T01:46:30.292Z,45.53
2023-02-27T01:49:02.393Z,44.82
2023-02-27T01:51:33.133Z,45.01
2023-02-27T01:54:00.537Z,45.46
2023-02-27T01:56:31.582Z,45.56
2023-02-27T01:59:01.868Z,44.92
2023-02-27T02:01:29.823Z,44.95
2023-02-27T02:04:28.000Z,45.34
2023-02-27T02:07:02.079Z,45.01
2023-02-27T02:09:29.348Z,45.48
2023-02-27T02:11:57.393Z,45.70
2023-02-27T02:14:24.099Z,45.80
2023-02-27T02:17:23.554Z,45.71
2023-02-27T02:20:15.075Z,45.53
2023-02-27T02:23:09.938Z,45.86
2023-02-27T02:26:03.860Z,45.54
2023-02-27T02:28:58.225Z,45.16
2023-02-27T02:31:36.911Z,45.54
2023-02-27T02:34:27.838Z,45.33
2023-02-27T02:37:00.425Z,45.09
2023-02-27T02:39:41.069Z,45.27
2023-02-27T02:42:32.314Z,45.67
2023-02-27T02:45:16.027Z,45.18
2023-02-27T02:48:00.421Z,45.02
2023-02-27T02:50:31.566Z,44.87
2023-02-27T02:53:23.119Z,45.76
2023-02-27T02:55:56.449Z,45.10
2023-02-27T02:58:39.982Z,45.14
2023-02-27T03:01:18.250Z,44.90
2023-02-27T03:03:49.948Z,44.96
2023-02-27T03:06:20.718Z,45.59
2023-02-27T03:08:55.728Z,45.50
2023-02-27T03:11:24.597Z,45.29
2023-02-27T03:13:55.958Z,44.96
2023-02-27T03:16:28.269Z,45.01
2023-02-27T03:19:24.084Z,44.81
2023-02-27T03:22:08.319Z,45.36
2023-02-27T03:24:34.837Z,45.32
2023-02-27T03:27:03.116Z,45.49
2023-02-27T03:29:44.082Z,45.22
2023-02-27T03:32:18.642Z,45.20
2023-02-27T03:34:46.099Z,45.50
2023-02-27T03:37:54.164Z,44.96
2023-02-27T03:40:59.415Z,45.82
2023-02-27T03:43:46.532Z,45.12
2023-02-27T03:46:16.687Z,45.38
2023-02-27T03:48:44.838Z,45.58
2023-02-27T03:51:16.690Z,44.97
2023-02-27T03:53:47.316Z,45.47
2023-02-27T03:56:16.860Z,45.77
2023-02-27T03:58:43.779Z,45.28
2023-02-27T04:01:10.370Z,45.74
2023-02-27T04:03:43.495Z,45.05
2023-02-27T04:06:30.442Z,45.40
2023-02-27T04:09:08.234Z,44.78
2023-02-27T04:11:46.641Z,45.58
2023-02-27T04:14:19.563Z,45.65
2023-02-27T04:16:49.635Z,45.25
2023-02-27T04:19:24.240Z,45.13
2023-02-27T04:21:56.900Z,44.92
2023-02-27T04:24:46.897Z,45.57
2023-02-27T04:27:25.419Z,45.39
2023-02-27T04:30:15.619Z,44.92
2023-02-27T04:33:07.730Z,44.73
2023-02-27T04:35:41.850Z,45.38
2023-02-27T04:38:19.714Z,45.50
2023-02-27T04:41:09.837Z,45.26
2023-02-27T04:43:37.854Z,45.02
2023-02-27T04:46:07.175Z,45.58
2023-02-27T04:48:37.836Z,45.46
2023-02-27T04:51:11.869Z,45.07
2023-02-27T04:53:47.921Z,45.45
2023-02-27T04:56:18.390Z,44.96
2023-02-27T04:58:54.150Z,45.14
2023-02-27T05:01:25.145Z,45.54
2023-02-27T05:03:53.093Z,44.90
2023-02-27T05:06:22.556Z,45.50
2023-02-27T05:09:15.168Z,45.09
2023-02-27T05:11:46.108Z,45.50
2023-02-27T05:14:28.096Z,45.24
2023-02-27T05:17:04.121Z,45.55
2023-02-27T05:19:32.357Z,45.23
2023-02-27T05:22:23.367Z,45.67
2023-02-27T05:24:53.000Z,44.96
2023-02-27T05:27:33.896Z,45.30
2023-02-27T05:30:17.840Z,45.33
2023-02-27T05:32:54.241Z,45.24
2023-02-27T05:35:29.418Z,45.08
2023-02-27T05:38:13.147Z,44.99
2023-02-27T05:40:44.447Z,45.08
2023-02-27T05:43:19.263Z,44.96
2023-02-27T05:45:48.384Z,44.73
2023-02-27T05:48:19.962Z,45.29
2023-02-27T05:50:48.724Z,44.72
2023-02-27T05:53:18.153Z,45.16
2023-02-27T05:55:49.072Z,44.62
2023-02-27T05:58:40.406Z,45.02
2023-02-27T06:01:08.529Z,44.66
2023-02-27T06:03:36.877Z,45.01
2023-02-27T06:06:06.156Z,45.09
2023-02-27T06:08:33.248Z,45.63
2023-02-27T06:10:59.839Z,45.23
2023-02-27T06:13:26.451Z,45.13
2023-02-27T06:15:53.291Z,45.42
2023-02-27T06:18:20.300Z,44.88
2023-02-27T06:20:48.072Z,45.14
2023-02-27T06:23:14.716Z,45.35
2023-02-27T06:25:44.439Z,44.95
2023-02-27T06:28:11.234Z,44.94
2023-02-27T06:30:38.210Z,44.82
2023-02-27T06:33:05.489Z,44.83
2023-02-27T06:35:32.506Z,45.09
2023-02-27T06:37:59.298Z,45.51
2023-02-27T06:40:25.867Z,45.36
2023-02-27T06:42:52.474Z,45.02
2023-02-27T06:45:19.219Z,45.63
2023-02-27T06:47:46.367Z,45.27
2023-02-27T06:50:13.860Z,45.39
2023-02-27T06:52:40.888Z,45.47
2023-02-27T06:55:08.855Z,45.09
2023-02-27T06:57:35.458Z,45.47
2023-02-27T07:00:02.606Z,44.86
2023-02-27T07:02:29.409Z,45.45
2023-02-27T07:04:56.081Z,45.34
2023-02-27T07:07:32.373Z,44.53
2023-02-27T07:10:00.312Z,44.92
2023-02-27T07:12:26.897Z,45.45
2023-02-27T07:14:53.485Z,44.98
2023-02-27T07:17:20.180Z,45.37
2023-02-27T07:19:46.775Z,44.65
2023-02-27T07:22:13.419Z,44.85
2023-02-27T07:24:40.000Z,45.01
2023-02-27T07:27:06.587Z,45.21
2023-02-27T07:29:33.199Z,45.22
2023-02-27T07:32:01.508Z,45.23
2023-02-27T07:34:28.170Z,45.40
2023-02-27T07:36:54.761Z,45.34
2023-02-27T07:39:21.363Z,45.25
2023-02-27T07:41:48.002Z,45.34
2023-02-27T07:44:14.695Z,44.83
2023-02-27T07:46:41.470Z,45.27
2023-02-27T07:49:08.103Z,45.28
2023-02-27T07:51:34.702Z,45.38
2023-02-27T07:54:01.277Z,44.72
2023-02-27T07:56:28.282Z,45.15
2023-02-27T07:58:55.041Z,45.19
2023-02-27T08:01:21.725Z,44.92
2023-02-27T08:03:48.332Z,44.86
2023-02-27T08:06:14.947Z,45.43
2023-02-27T08:08:42.162Z,44.99
2023-02-27T08:11:08.784Z,45.29
2023-02-27T08:13:59.554Z,44.73
2023-02-27T08:16:22.123Z,44.91
2023-02-27T08:18:48.730Z,44.80
2023-02-27T08:21:15.821Z,45.18
2023-02-27T08:23:42.689Z,45.27
2023-02-27T08:26:09.347Z,44.87
2023-02-27T08:28:35.933Z,44.78
2023-02-27T08:31:02.609Z,44.75
2023-02-27T08:33:29.217Z,45.30
2023-02-27T08:35:55.897Z,45.10
2023-02-27T08:38:23.932Z,44.90
2023-02-27T08:40:55.367Z,45.19
2023-02-27T08:43:22.824Z,45.13
2023-02-27T08:45:50.435Z,44.88
2023-02-27T08:48:18.553Z,45.22
2023-02-27T08:50:46.296Z,45.31
2023-02-27T08:53:13.373Z,44.58
2023-02-27T08:55:40.019Z,45.18
2023-02-27T08:58:06.634Z,44.71
2023-02-27T09:00:33.194Z,45.23
2023-02-27T09:03:01.434Z,45.21
2023-02-27T09:05:28.828Z,45.02
2023-02-27T09:07:55.415Z,44.70
2023-02-27T09:10:22.696Z,44.81
2023-02-27T09:12:49.334Z,45.54
2023-02-27T09:15:16.187Z,44.79
2023-02-27T09:17:42.755Z,44.93
2023-02-27T09:20:10.744Z,44.79
2023-02-27T09:22:37.728Z,44.92
2023-02-27T09:25:05.011Z,44.76
2023-02-27T09:27:31.584Z,44.70
2023-02-27T09:29:59.274Z,44.58
2023-02-27T09:32:27.049Z,44.67
2023-02-27T09:34:53.696Z,45.23
2023-02-27T09:37:20.346Z,45.18
2023-02-27T09:39:47.267Z,44.99
2023-02-27T09:42:19.845Z,44.45
2023-02-27T09:44:48.871Z,45.02
2023-02-27T09:47:23.318Z,44.36
2023-02-27T09:49:56.977Z,45.10
2023-02-27T09:52:23.675Z,45.11
2023-02-27T09:54:50.417Z,44.79
2023-02-27T09:57:28.285Z,45.37
2023-02-27T09:59:59.655Z,44.45
2023-02-27T10:03:06.164Z,44.86
2023-02-27T10:05:44.108Z,44.49
2023-02-27T10:08:35.807Z,44.83
2023-02-27T10:11:06.024Z,44.39
2023-02-27T10:13:55.654Z,45.58
2023-02-27T10:16:22.794Z,44.51
2023-02-27T10:19:10.879Z,44.92
2023-02-27T10:21:41.002Z,45.11
2023-02-27T10:24:32.114Z,44.48
2023-02-27T10:27:02.540Z,45.11
2023-02-27T10:29:33.377Z,45.22
2023-02-27T10:32:06.843Z,44.58
2023-02-27T10:34:34.372Z,44.57
2023-02-27T10:37:02.850Z,45.19
2023-02-27T10:39:30.561Z,44.78
2023-02-27T10:42:03.601Z,44.97
2023-02-27T10:44:30.231Z,45.18
2023-02-27T10:46:56.800Z,44.70
2023-02-27T10:49:23.453Z,44.49
2023-02-27T10:52:14.292Z,44.20
2023-02-27T10:54:41.568Z,44.93
2023-02-27T10:57:45.992Z,44.77
2023-02-27T11:00:40.836Z,44.79
2023-02-27T11:03:07.780Z,44.51
2023-02-27T11:05:36.018Z,44.23
2023-02-27T11:08:20.541Z,44.59
2023-02-27T11:11:00.478Z,44.19
2023-02-27T11:13:29.987Z,44.99
2023-02-27T11:16:09.978Z,44.93
2023-02-27T11:18:39.257Z,44.34
2023-02-27T11:21:20.026Z,44.39
2023-02-27T11:24:07.628Z,44.29
2023-02-27T11:26:40.961Z,44.46
2023-02-27T11:29:15.012Z,43.86
2023-02-27T11:31:48.036Z,44.37
2023-02-27T11:34:36.718Z,44.01
2023-02-27T11:37:20.596Z,44.77
2023-02-27T11:40:10.418Z,44.24
2023-02-27T11:42:42.094Z,44.39
2023-02-27T11:46:20.656Z,44.84
2023-02-27T11:48:32.501Z,44.93
2023-02-27T11:51:10.785Z,44.31
2023-02-27T11:53:40.134Z,45.01
2023-02-27T11:56:11.219Z,44.50
2023-02-27T11:58:48.629Z,44.68
2023-02-27T12:01:46.920Z,44.37
2023-02-27T12:04:18.491Z,44.81
2023-02-27T12:07:05.761Z,44.20
2023-02-27T12:09:44.638Z,44.30
2023-02-27T12:12:19.502Z,44.50
2023-02-27T12:14:50.973Z,45.00
2023-02-27T12:17:23.532Z,44.71
2023-02-27T12:20:19.798Z,44.51
2023-02-27T12:22:48.686Z,44.74
2023-02-27T12:25:33.774Z,44.44
2023-02-27T12:28:12.988Z,44.47
2023-02-27T12:30:43.286Z,44.56
2023-02-27T12:33:13.628Z,44.25
2023-02-27T12:35:43.132Z,44.54
2023-02-27T12:38:14.826Z,44.95
2023-02-27T12:40:49.931Z,44.33
2023-02-27T12:43:23.952Z,44.84
2023-02-27T12:45:59.325Z,44.43
2023-02-27T12:48:32.028Z,44.22
2023-02-27T12:51:25.782Z,44.70
2023-02-27T12:54:20.275Z,44.31
2023-02-27T12:57:00.552Z,44.53
2023-02-27T12:59:45.724Z,44.36
2023-02-27T13:02:38.384Z,44.38
2023-02-27T13:05:32.436Z,44.62
2023-02-27T13:08:38.277Z,44.34
2023-02-27T13:11:07.390Z,44.33
2023-02-27T13:13:50.159Z,44.60
2023-02-27T13:16:21.944Z,44.52
2023-02-27T13:18:55.442Z,44.06
2023-02-27T13:21:25.206Z,44.35
2023-02-27T13:24:12.247Z,44.60
2023-02-27T13:26:45.229Z,44.45
2023-02-27T13:29:15.516Z,44.57
2023-02-27T13:31:50.876Z,44.22
2023-02-27T13:34:26.253Z,44.32
2023-02-27T13:36:58.058Z,44.78
2023-02-27T13:39:47.091Z,44.76
2023-02-27T13:42:33.998Z,44.39
2023-02-27T13:45:06.342Z,44.22
2023-02-27T13:48:02.240Z,44.16
2023-02-27T13:50:28.765Z,44.32
2023-02-27T13:52:55.366Z,44.18
2023-02-27T13:55:31.204Z,44.42
2023-02-27T13:57:59.737Z,44.31
2023-02-27T14:00:34.608Z,44.02
2023-02-27T14:03:23.005Z,44.39
2023-02-27T14:05:52.182Z,44.50
2023-02-27T14:08:27.256Z,44.53
2023-02-27T14:11:41.249Z,44.52
2023-02-27T14:14:16.441Z,44.03
2023-02-27T14:16:48.197Z,44.32
2023-02-27T14:19:17.865Z,43.94
2023-02-27T14:22:01.705Z,44.18
2023-02-27T14:25:02.597Z,44.47
2023-02-27T14:27:33.438Z,44.56
2023-02-27T14:30:05.378Z,44.35
2023-02-27T14:32:34.476Z,44.14
2023-02-27T14:35:03.727Z,43.94
2023-02-27T14:37:30.751Z,44.09
2023-02-27T14:40:00.366Z,44.20
2023-02-27T14:42:50.230Z,44.36
2023-02-27T14:45:25.221Z,44.15
2023-02-27T14:47:52.657Z,44.68
2023-02-27T14:50:34.173Z,44.81
2023-02-27T14:53:01.659Z,44.43
2023-02-27T14:55:31.398Z,44.07
2023-02-27T14:58:01.475Z,44.15
2023-02-27T15:00:30.947Z,43.85
2023-02-27T15:02:58.306Z,43.67
2023-02-27T15:05:30.022Z,44.43
2023-02-27T15:07:57.325Z,44.54
2023-02-27T15:10:30.796Z,44.14
2023-02-27T15:13:01.635Z,43.75
2023-02-27T15:15:28.649Z,44.50
2023-02-27T15:17:59.329Z,44.64
2023-02-27T15:20:34.596Z,44.66
2023-02-27T15:23:18.253Z,44.04
2023-02-27T15:25:44.867Z,44.05
2023-02-27T15:28:36.185Z,43.89
2023-02-27T15:31:03.180Z,44.25
2023-02-27T15:33:32.124Z,44.43
2023-02-27T15:35:59.387Z,44.57
2023-02-27T15:38:34.144Z,44.47
2023-02-27T15:41:02.155Z,44.61
2023-02-27T15:43:29.443Z,44.50
2023-02-27T15:45:58.179Z,43.77
2023-02-27T15:48:25.326Z,44.67
2023-02-27T15:50:58.365Z,44.83
2023-02-27T15:53:26.427Z,44.20
2023-02-27T15:55:59.335Z,44.67
2023-02-27T15:58:28.762Z,44.47
2023-02-27T16:01:18.300Z,44.62
2023-02-27T16:03:56.290Z,44.30
2023-02-27T16:06:28.044Z,44.25
2023-02-27T16:09:06.989Z,44.70
2023-02-27T16:11:35.585Z,44.08
2023-02-27T16:14:02.912Z,44.27
2023-02-27T16:16:36.130Z,43.89
2023-02-27T16:19:24.430Z,43.66
2023-02-27T16:22:04.683Z,44.27
2023-02-27T16:24:32.651Z,44.51
2023-02-27T16:27:00.426Z,44.05
2023-02-27T16:29:35.202Z,44.08
2023-02-27T16:32:02.514Z,44.44
2023-02-27T16:34:45.462Z,44.49
2023-02-27T16:37:36.956Z,43.94
2023-02-27T16:40:15.528Z,44.05
2023-02-27T16:42:43.606Z,44.01
2023-02-27T16:45:21.429Z,44.68
2023-02-27T16:47:49.582Z,43.94
2023-02-27T16:50:25.398Z,44.36
2023-02-27T16:52:52.042Z,44.05
2023-02-27T16:55:18.653Z,44.39
2023-02-27T16:57:45.237Z,44.10
2023-02-27T17:00:14.084Z,44.01
2023-02-27T17:02:40.706Z,44.35
2023-02-27T17:05:08.245Z,43.89
2023-02-27T17:07:35.052Z,44.55
2023-02-27T17:10:01.745Z,44.24
2023-02-27T17:12:28.384Z,44.12
2023-02-27T17:14:55.781Z,44.55
2023-02-27T17:17:22.458Z,44.53
2023-02-27T17:19:49.399Z,44.57
2023-02-27T17:22:16.086Z,44.13
2023-02-27T17:24:42.707Z,44.13
2023-02-27T17:27:09.543Z,44.44
2023-02-27T17:29:38.490Z,44.59
2023-02-27T17:32:05.584Z,44.67
2023-02-27T17:34:32.223Z,44.12
2023-02-27T17:36:58.893Z,44.51
2023-02-27T17:39:25.529Z,44.02
2023-02-27T17:41:53.193Z,44.06
2023-02-27T17:44:19.851Z,44.27
2023-02-27T17:46:46.429Z,44.23
2023-02-27T17:49:13.017Z,43.99
2023-02-27T17:51:39.616Z,43.84
2023-02-27T17:54:07.091Z,44.21
2023-02-27T17:56:36.812Z,44.15
2023-02-27T17:59:03.906Z,43.81
2023-02-27T18:01:30.545Z,43.76
2023-02-27T18:03:57.234Z,44.18
2023-02-27T18:06:24.240Z,44.07
2023-02-27T18:08:51.189Z,44.01
2023-02-27T18:11:19.573Z,43.82
2023-02-27T18:13:47.103Z,44.12
2023-02-27T18:16:14.327Z,44.41
2023-02-27T18:18:42.767Z,44.70
2023-02-27T18:21:20.505Z,44.39
2023-02-27T18:23:47.763Z,44.14
2023-02-27T18:26:28.888Z,44.11
2023-02-27T18:29:02.053Z,44.23
2023-02-27T18:31:31.737Z,44.26
2023-02-27T18:33:58.770Z,44.18
2023-02-27T18:36:25.441Z,44.08
2023-02-27T18:38:52.141Z,44.33
2023-02-27T18:41:18.719Z,44.38
2023-02-27T18:43:45.315Z,43.91
2023-02-27T18:46:13.326Z,44.70
2023-02-27T18:48:41.004Z,44.56
2023-02-27T18:51:12.276Z,44.54
2023-02-27T18:53:40.343Z,44.67
2023-02-27T18:56:08.351Z,44.56
2023-02-27T18:58:35.222Z,44.04
2023-02-27T19:01:04.019Z,44.04
2023-02-27T19:03:31.391Z,44.10
2023-02-27T19:05:58.226Z,44.51
2023-02-27T19:08:28.978Z,44.23
2023-02-27T19:10:56.484Z,43.96
2023-02-27T19:13:23.306Z,44.53
2023-02-27T19:15:49.931Z,44.24
2023-02-27T19:18:16.586Z,43.98
2023-02-27T19:20:43.190Z,44.57
2023-02-27T19:23:09.878Z,44.50
2023-02-27T19:25:36.466Z,44.43
2023-02-27T19:28:05.125Z,44.23
2023-02-27T19:30:31.707Z,44.53
2023-02-27T19:32:58.320Z,44.04
2023-02-27T19:35:24.992Z,44.02
2023-02-27T19:37:56.973Z,43.95
2023-02-27T19:40:24.181Z,44.73
2023-02-27T19:42:51.480Z,44.01
2023-02-27T19:45:18.104Z,44.26
2023-02-27T19:47:45.369Z,44.52
2023-02-27T19:50:12.326Z,44.36
2023-02-27T19:52:38.929Z,43.98
2023-02-27T19:55:06.490Z,44.98
2023-02-27T19:57:34.832Z,44.26
2023-02-27T20:00:01.411Z,44.28
2023-02-27T20:02:28.161Z,44.59
2023-02-27T20:04:55.001Z,44.11
2023-02-27T20:07:21.966Z,44.59
2023-02-27T20:09:48.562Z,43.95
2023-02-27T20:12:15.172Z,44.03
2023-02-27T20:14:41.858Z,44.53
2023-02-27T20:17:08.457Z,44.19
2023-02-27T20:19:36.488Z,44.45
2023-02-27T20:22:03.503Z,43.84
2023-02-27T20:24:30.103Z,44.34
2023-02-27T20:26:59.169Z,44.44
2023-02-27T20:29:27.044Z,44.02
2023-02-27T20:31:55.396Z,44.32
2023-02-27T20:34:25.844Z,44.36
2023-02-27T20:36:54.149Z,44.12
2023-02-27T20:39:21.854Z,43.92
2023-02-27T20:41:48.647Z,44.55
2023-02-27T20:44:15.865Z,43.83
2023-02-27T20:46:43.392Z,44.12
2023-02-27T20:49:12.072Z,44.02
2023-02-27T20:51:39.595Z,43.92
2023-02-27T20:54:09.660Z,44.38
2023-02-27T20:56:40.578Z,44.36
2023-02-27T20:59:10.506Z,44.45
2023-02-27T21:01:38.571Z,44.15
2023-02-27T21:04:05.837Z,44.01
2023-02-27T21:06:32.873Z,44.18
2023-02-27T21:09:02.718Z,44.58
2023-02-27T21:11:30.876Z,44.32
2023-02-27T21:13:59.318Z,44.68
2023-02-27T21:16:25.915Z,43.98
2023-02-27T21:18:53.522Z,44.61
2023-02-27T21:21:25.334Z,44.04
2023-02-27T21:23:52.196Z,44.84
2023-02-27T21:26:21.681Z,44.32
2023-02-27T21:29:09.689Z,44.88
2023-02-27T21:31:37.454Z,44.21
2023-02-27T21:34:06.983Z,44.59
2023-02-27T21:36:36.781Z,44.60
2023-02-27T21:39:07.305Z,44.22
2023-02-27T21:41:35.424Z,44.36
2023-02-27T21:44:04.038Z,44.12
2023-02-27T21:46:31.382Z,44.01
2023-02-27T21:48:58.269Z,44.19
2023-02-27T21:51:38.735Z,44.20
2023-02-27T21:54:07.333Z,44.52
2023-02-27T21:56:33.927Z,44.38
2023-02-27T21:59:01.735Z,44.21
2023-02-27T22:01:29.263Z,44.16
2023-02-27T22:03:56.217Z,44.51
2023-02-27T22:06:23.898Z,44.73
2023-02-27T22:08:58.006Z,44.06
2023-02-27T22:11:25.986Z,44.07
2023-02-27T22:13:53.085Z,44.65
2023-02-27T22:16:20.297Z,44.49
2023-02-27T22:18:47.763Z,44.05
2023-02-27T22:21:17.224Z,44.08
2023-02-27T22:23:44.456Z,44.22
2023-02-27T22:26:14.046Z,44.86
2023-02-27T22:28:41.439Z,44.52
2023-02-27T22:31:13.136Z,44.41
2023-02-27T22:33:40.822Z,44.44
2023-02-27T22:36:12.557Z,44.25
2023-02-27T22:38:39.197Z,44.59
2023-02-27T22:41:30.616Z,44.62
2023-02-27T22:43:58.467Z,44.68
2023-02-27T22:46:36.729Z,44.92
2023-02-27T22:49:06.701Z,45.06
2023-02-27T22:51:33.324Z,44.40
2023-02-27T22:54:01.737Z,44.47
2023-02-27T22:56:28.736Z,44.05
2023-02-27T22:58:55.347Z,44.00
2023-02-27T23:01:24.061Z,44.68
2023-02-27T23:03:52.803Z,44.20
2023-02-27T23:06:22.417Z,44.84
2023-02-27T23:08:49.471Z,43.78
2023-02-27T23:11:17.358Z,44.10
2023-02-27T23:13:44.053Z,44.49
2023-02-27T23:16:14.029Z,44.13
2023-02-27T23:18:42.392Z,44.54
2023-02-27T23:21:09.568Z,44.36
2023-02-27T23:23:36.607Z,44.52
2023-02-27T23:26:05.624Z,44.69
2023-02-27T23:28:33.031Z,44.00
2023-02-27T23:30:59.688Z,44.71
2023-02-27T23:33:27.371Z,44.50
2023-02-27T23:35:54.083Z,43.96
2023-02-27T23:38:20.700Z,44.62
2023-02-27T23:40:47.291Z,44.28
2023-02-27T23:43:32.991Z,44.09
2023-02-27T23:46:06.033Z,44.42
2023-02-27T23:48:32.656Z,44.18
2023-02-27T23:51:01.620Z,44.31
2023-02-27T23:53:28.179Z,44.19
2023-02-27T23:55:54.764Z,44.47
2023-02-27T23:58:21.386Z,44.20
